Terminal Aerodrome Forecast
Issued by NWS Wilmington, OH

Current Version | Previous Version | Text Only | Print | Product List | Glossary Off
Versions: 1 2 3 4 5 6 7 8 9 10 11 12 13 14

000
FTUS41 KILN 271500 AAA
TAFDAY
TAF AMD
KDAY 271504Z 2715/2812 36004KT P6SM FEW070 SCT150
     FM271700 35007KT P6SM VCTS BKN060CB
     FM272100 01005KT P6SM BKN090
     FM280000 05005KT P6SM SCT100 BKN250=

USA.gov is the U.S. government's official web portal to all federal, state and local government web resources and services.